sensor_id;sensor_type;location;lat;lon;timestamp;P1;durP1;ratioP1;P2;durP2;ratioP2
20997;SDS011;10657;51.276;6.390;2022-11-20T00:00:41;16.45;;;9.35;;
20997;SDS011;10657;51.276;6.390;2022-11-20T00:03:07;14.35;;;9.07;;
20997;SDS011;10657;51.276;6.390;2022-11-20T00:05:34;17.67;;;10.13;;
20997;SDS011;10657;51.276;6.390;2022-11-20T00:08:01;14.52;;;9.00;;
20997;SDS011;10657;51.276;6.390;2022-11-20T00:10:27;17.52;;;9.90;;
20997;SDS011;10657;51.276;6.390;2022-11-20T00:12:54;13.90;;;8.50;;
20997;SDS011;10657;51.276;6.390;2022-11-20T00:15:21;14.07;;;8.20;;
20997;SDS011;10657;51.276;6.390;2022-11-20T00:17:47;14.13;;;8.20;;
20997;SDS011;10657;51.276;6.390;2022-11-20T00:20:14;14.30;;;7.65;;
20997;SDS011;10657;51.276;6.390;2022-11-20T00:22:40;15.65;;;9.30;;
20997;SDS011;10657;51.276;6.390;2022-11-20T00:25:07;17.13;;;9.98;;
20997;SDS011;10657;51.276;6.390;2022-11-20T00:27:34;19.33;;;12.77;;
20997;SDS011;10657;51.276;6.390;2022-11-20T00:30:00;15.13;;;9.15;;
20997;SDS011;10657;51.276;6.390;2022-11-20T00:32:27;17.90;;;9.95;;
20997;SDS011;10657;51.276;6.390;2022-11-20T00:34:54;16.85;;;9.88;;
20997;SDS011;10657;51.276;6.390;2022-11-20T00:37:20;15.65;;;9.75;;
20997;SDS011;10657;51.276;6.390;2022-11-20T00:39:47;19.55;;;11.85;;
20997;SDS011;10657;51.276;6.390;2022-11-20T00:42:13;15.82;;;9.35;;
20997;SDS011;10657;51.276;6.390;2022-11-20T00:44:40;16.85;;;9.27;;
20997;SDS011;10657;51.276;6.390;2022-11-20T00:47:07;14.43;;;8.40;;
20997;SDS011;10657;51.276;6.390;2022-11-20T00:49:33;14.05;;;8.10;;
20997;SDS011;10657;51.276;6.390;2022-11-20T00:52:00;18.33;;;10.73;;
20997;SDS011;10657;51.276;6.390;2022-11-20T00:54:26;18.88;;;11.57;;
20997;SDS011;10657;51.276;6.390;2022-11-20T00:56:53;15.23;;;9.43;;
20997;SDS011;10657;51.276;6.390;2022-11-20T00:59:20;20.38;;;13.05;;
20997;SDS011;10657;51.276;6.390;2022-11-20T01:01:47;20.25;;;13.02;;
20997;SDS011;10657;51.276;6.390;2022-11-20T01:04:13;19.38;;;10.50;;
20997;SDS011;10657;51.276;6.390;2022-11-20T01:06:40;16.95;;;10.25;;
20997;SDS011;10657;51.276;6.390;2022-11-20T01:09:09;7.63;;;3.58;;
20997;SDS011;10657;51.276;6.390;2022-11-20T01:11:38;17.10;;;8.98;;
20997;SDS011;10657;51.276;6.390;2022-11-20T01:14:08;18.73;;;11.02;;
20997;SDS011;10657;51.276;6.390;2022-11-20T01:16:38;11.27;;;5.97;;
20997;SDS011;10657;51.276;6.390;2022-11-20T01:19:09;6.35;;;2.90;;
20997;SDS011;10657;51.276;6.390;2022-11-20T01:21:43;6.28;;;2.95;;
20997;SDS011;10657;51.276;6.390;2022-11-20T01:24:12;6.50;;;2.85;;
20997;SDS011;10657;51.276;6.390;2022-11-20T01:26:41;9.18;;;4.78;;
20997;SDS011;10657;51.276;6.390;2022-11-20T01:29:10;13.05;;;7.65;;
20997;SDS011;10657;51.276;6.390;2022-11-20T01:31:40;16.80;;;10.23;;
20997;SDS011;10657;51.276;6.390;2022-11-20T01:34:12;8.77;;;4.47;;
20997;SDS011;10657;51.276;6.390;2022-11-20T01:36:41;17.77;;;9.57;;
20997;SDS011;10657;51.276;6.390;2022-11-20T01:39:12;19.15;;;11.07;;
20997;SDS011;10657;51.276;6.390;2022-11-20T01:41:45;17.70;;;10.73;;
20997;SDS011;10657;51.276;6.390;2022-11-20T01:44:55;16.02;;;9.85;;
20997;SDS011;10657;51.276;6.390;2022-11-20T01:50:11;18.45;;;12.02;;
20997;SDS011;10657;51.276;6.390;2022-11-20T01:52:45;18.73;;;11.27;;
20997;SDS011;10657;51.276;6.390;2022-11-20T01:55:17;16.48;;;9.48;;
20997;SDS011;10657;51.276;6.390;2022-11-20T01:57:47;15.88;;;10.02;;
20997;SDS011;10657;51.276;6.390;2022-11-20T02:00:15;21.58;;;13.95;;
20997;SDS011;10657;51.276;6.390;2022-11-20T02:02:46;16.85;;;10.35;;
20997;SDS011;10657;51.276;6.390;2022-11-20T02:05:35;17.58;;;10.40;;
20997;SDS011;10657;51.276;6.390;2022-11-20T02:08:18;22.05;;;14.00;;
20997;SDS011;10657;51.276;6.390;2022-11-20T02:10:45;22.80;;;14.25;;
20997;SDS011;10657;51.276;6.390;2022-11-20T02:13:12;17.13;;;10.43;;
20997;SDS011;10657;51.276;6.390;2022-11-20T02:15:57;19.30;;;10.15;;
20997;SDS011;10657;51.276;6.390;2022-11-20T02:18:24;18.02;;;10.60;;
20997;SDS011;10657;51.276;6.390;2022-11-20T02:20:56;17.08;;;10.52;;
20997;SDS011;10657;51.276;6.390;2022-11-20T02:26:19;17.95;;;10.43;;
20997;SDS011;10657;51.276;6.390;2022-11-20T02:28:49;15.63;;;10.07;;
20997;SDS011;10657;51.276;6.390;2022-11-20T02:31:16;16.98;;;10.85;;
20997;SDS011;10657;51.276;6.390;2022-11-20T02:33:43;19.20;;;11.50;;
20997;SDS011;10657;51.276;6.390;2022-11-20T02:36:10;20.52;;;12.32;;
20997;SDS011;10657;51.276;6.390;2022-11-20T02:38:40;17.92;;;10.88;;
20997;SDS011;10657;51.276;6.390;2022-11-20T02:41:08;17.52;;;11.80;;
20997;SDS011;10657;51.276;6.390;2022-11-20T02:43:34;21.75;;;13.32;;
20997;SDS011;10657;51.276;6.390;2022-11-20T02:46:01;22.92;;;14.15;;
20997;SDS011;10657;51.276;6.390;2022-11-20T02:48:27;20.48;;;12.70;;
20997;SDS011;10657;51.276;6.390;2022-11-20T02:50:59;21.90;;;13.13;;
20997;SDS011;10657;51.276;6.390;2022-11-20T02:53:26;21.73;;;13.05;;
20997;SDS011;10657;51.276;6.390;2022-11-20T02:55:52;19.50;;;12.13;;
20997;SDS011;10657;51.276;6.390;2022-11-20T02:58:19;17.98;;;10.60;;
20997;SDS011;10657;51.276;6.390;2022-11-20T03:00:45;18.23;;;10.63;;
20997;SDS011;10657;51.276;6.390;2022-11-20T03:03:12;18.17;;;11.10;;
20997;SDS011;10657;51.276;6.390;2022-11-20T03:05:38;17.35;;;10.25;;
20997;SDS011;10657;51.276;6.390;2022-11-20T03:08:05;19.13;;;10.25;;
20997;SDS011;10657;51.276;6.390;2022-11-20T03:10:32;20.00;;;13.25;;
20997;SDS011;10657;51.276;6.390;2022-11-20T03:12:58;22.52;;;13.80;;
20997;SDS011;10657;51.276;6.390;2022-11-20T03:15:25;20.95;;;12.02;;
20997;SDS011;10657;51.276;6.390;2022-11-20T03:17:55;22.38;;;14.20;;
20997;SDS011;10657;51.276;6.390;2022-11-20T03:20:22;23.40;;;13.98;;
20997;SDS011;10657;51.276;6.390;2022-11-20T03:22:49;21.90;;;14.23;;
20997;SDS011;10657;51.276;6.390;2022-11-20T03:25:15;23.63;;;14.57;;
20997;SDS011;10657;51.276;6.390;2022-11-20T03:27:42;22.55;;;14.10;;
20997;SDS011;10657;51.276;6.390;2022-11-20T03:30:09;23.05;;;14.35;;
20997;SDS011;10657;51.276;6.390;2022-11-20T03:32:36;27.30;;;14.98;;
20997;SDS011;10657;51.276;6.390;2022-11-20T03:35:02;21.88;;;14.25;;
20997;SDS011;10657;51.276;6.390;2022-11-20T03:37:29;24.98;;;15.15;;
20997;SDS011;10657;51.276;6.390;2022-11-20T03:39:56;22.83;;;13.93;;
20997;SDS011;10657;51.276;6.390;2022-11-20T03:42:22;21.02;;;12.63;;
20997;SDS011;10657;51.276;6.390;2022-11-20T03:45:08;21.13;;;12.98;;
20997;SDS011;10657;51.276;6.390;2022-11-20T03:47:34;16.98;;;9.88;;
20997;SDS011;10657;51.276;6.390;2022-11-20T03:50:01;23.40;;;13.20;;
20997;SDS011;10657;51.276;6.390;2022-11-20T03:52:28;17.52;;;9.73;;
20997;SDS011;10657;51.276;6.390;2022-11-20T03:54:55;15.88;;;9.70;;
20997;SDS011;10657;51.276;6.390;2022-11-20T03:57:21;19.25;;;11.50;;
20997;SDS011;10657;51.276;6.390;2022-11-20T03:59:48;18.02;;;11.05;;
20997;SDS011;10657;51.276;6.390;2022-11-20T04:02:14;17.40;;;10.57;;
20997;SDS011;10657;51.276;6.390;2022-11-20T04:04:41;16.23;;;9.90;;
20997;SDS011;10657;51.276;6.390;2022-11-20T04:07:08;18.00;;;10.30;;
20997;SDS011;10657;51.276;6.390;2022-11-20T04:09:34;16.20;;;9.48;;
20997;SDS011;10657;51.276;6.390;2022-11-20T04:12:01;19.40;;;11.35;;
20997;SDS011;10657;51.276;6.390;2022-11-20T04:14:27;15.63;;;8.90;;
20997;SDS011;10657;51.276;6.390;2022-11-20T04:16:54;18.25;;;10.15;;
20997;SDS011;10657;51.276;6.390;2022-11-20T04:19:21;15.77;;;9.82;;
20997;SDS011;10657;51.276;6.390;2022-11-20T04:21:48;16.52;;;8.90;;
20997;SDS011;10657;51.276;6.390;2022-11-20T04:24:14;11.85;;;6.75;;
20997;SDS011;10657;51.276;6.390;2022-11-20T04:26:41;15.02;;;8.23;;
20997;SDS011;10657;51.276;6.390;2022-11-20T04:29:10;15.40;;;9.18;;
20997;SDS011;10657;51.276;6.390;2022-11-20T04:31:37;9.82;;;5.95;;
20997;SDS011;10657;51.276;6.390;2022-11-20T04:34:05;16.77;;;8.95;;
20997;SDS011;10657;51.276;6.390;2022-11-20T04:36:33;12.10;;;6.82;;
20997;SDS011;10657;51.276;6.390;2022-11-20T04:39:02;17.80;;;10.00;;
20997;SDS011;10657;51.276;6.390;2022-11-20T04:41:33;12.73;;;7.82;;
20997;SDS011;10657;51.276;6.390;2022-11-20T04:44:01;14.13;;;8.07;;
20997;SDS011;10657;51.276;6.390;2022-11-20T04:46:35;19.48;;;12.73;;
20997;SDS011;10657;51.276;6.390;2022-11-20T04:49:03;18.77;;;10.45;;
20997;SDS011;10657;51.276;6.390;2022-11-20T04:51:31;15.68;;;9.02;;
20997;SDS011;10657;51.276;6.390;2022-11-20T04:53:58;20.35;;;12.68;;
20997;SDS011;10657;51.276;6.390;2022-11-20T04:56:25;15.30;;;9.05;;
20997;SDS011;10657;51.276;6.390;2022-11-20T04:58:52;15.93;;;9.40;;
20997;SDS011;10657;51.276;6.390;2022-11-20T05:01:20;16.83;;;9.70;;
20997;SDS011;10657;51.276;6.390;2022-11-20T05:03:48;15.43;;;9.05;;
20997;SDS011;10657;51.276;6.390;2022-11-20T05:06:17;19.35;;;12.15;;
20997;SDS011;10657;51.276;6.390;2022-11-20T05:08:45;18.80;;;10.88;;
20997;SDS011;10657;51.276;6.390;2022-11-20T05:11:13;21.40;;;12.60;;
20997;SDS011;10657;51.276;6.390;2022-11-20T05:13:42;16.58;;;10.15;;
20997;SDS011;10657;51.276;6.390;2022-11-20T05:16:13;14.52;;;8.63;;
20997;SDS011;10657;51.276;6.390;2022-11-20T05:18:44;15.55;;;9.50;;
20997;SDS011;10657;51.276;6.390;2022-11-20T05:21:11;18.05;;;9.90;;
20997;SDS011;10657;51.276;6.390;2022-11-20T05:23:39;13.50;;;8.43;;
20997;SDS011;10657;51.276;6.390;2022-11-20T05:26:06;16.30;;;9.00;;
20997;SDS011;10657;51.276;6.390;2022-11-20T05:28:37;16.67;;;10.30;;
20997;SDS011;10657;51.276;6.390;2022-11-20T05:31:08;15.00;;;7.90;;
20997;SDS011;10657;51.276;6.390;2022-11-20T05:33:39;13.10;;;7.43;;
20997;SDS011;10657;51.276;6.390;2022-11-20T05:36:07;16.67;;;8.55;;
20997;SDS011;10657;51.276;6.390;2022-11-20T05:38:35;20.85;;;13.18;;
20997;SDS011;10657;51.276;6.390;2022-11-20T05:41:05;14.50;;;9.05;;
20997;SDS011;10657;51.276;6.390;2022-11-20T05:43:36;15.65;;;9.45;;
20997;SDS011;10657;51.276;6.390;2022-11-20T05:46:05;15.30;;;8.60;;
20997;SDS011;10657;51.276;6.390;2022-11-20T05:48:33;16.90;;;10.25;;
20997;SDS011;10657;51.276;6.390;2022-11-20T05:51:01;18.33;;;9.80;;
20997;SDS011;10657;51.276;6.390;2022-11-20T05:53:29;15.07;;;9.25;;
20997;SDS011;10657;51.276;6.390;2022-11-20T05:56:06;11.55;;;6.80;;
20997;SDS011;10657;51.276;6.390;2022-11-20T05:58:36;10.32;;;5.63;;
20997;SDS011;10657;51.276;6.390;2022-11-20T06:01:13;14.02;;;8.18;;
20997;SDS011;10657;51.276;6.390;2022-11-20T06:03:40;12.50;;;6.75;;
20997;SDS011;10657;51.276;6.390;2022-11-20T06:06:09;12.52;;;7.75;;
20997;SDS011;10657;51.276;6.390;2022-11-20T06:08:36;15.60;;;9.70;;
20997;SDS011;10657;51.276;6.390;2022-11-20T06:11:03;10.13;;;5.50;;
20997;SDS011;10657;51.276;6.390;2022-11-20T06:13:34;13.48;;;7.78;;
20997;SDS011;10657;51.276;6.390;2022-11-20T06:16:07;14.95;;;8.88;;
20997;SDS011;10657;51.276;6.390;2022-11-20T06:18:34;15.48;;;9.05;;
20997;SDS011;10657;51.276;6.390;2022-11-20T06:21:01;16.50;;;9.50;;
20997;SDS011;10657;51.276;6.390;2022-11-20T06:23:36;16.67;;;8.75;;
20997;SDS011;10657;51.276;6.390;2022-11-20T06:26:04;18.02;;;8.88;;
20997;SDS011;10657;51.276;6.390;2022-11-20T06:28:35;16.05;;;9.30;;
20997;SDS011;10657;51.276;6.390;2022-11-20T06:31:01;15.13;;;8.52;;
20997;SDS011;10657;51.276;6.390;2022-11-20T06:33:29;15.48;;;9.05;;
20997;SDS011;10657;51.276;6.390;2022-11-20T06:35:56;16.30;;;9.73;;
20997;SDS011;10657;51.276;6.390;2022-11-20T06:38:28;17.75;;;11.45;;
20997;SDS011;10657;51.276;6.390;2022-11-20T06:40:55;14.32;;;8.60;;
20997;SDS011;10657;51.276;6.390;2022-11-20T06:43:22;17.05;;;8.60;;
20997;SDS011;10657;51.276;6.390;2022-11-20T06:45:53;15.18;;;8.75;;
20997;SDS011;10657;51.276;6.390;2022-11-20T06:48:20;15.98;;;9.45;;
20997;SDS011;10657;51.276;6.390;2022-11-20T06:50:46;16.58;;;9.23;;
20997;SDS011;10657;51.276;6.390;2022-11-20T06:53:13;15.38;;;9.05;;
20997;SDS011;10657;51.276;6.390;2022-11-20T06:55:43;17.00;;;9.68;;
20997;SDS011;10657;51.276;6.390;2022-11-20T06:58:11;16.25;;;9.52;;
20997;SDS011;10657;51.276;6.390;2022-11-20T07:00:39;17.75;;;9.75;;
20997;SDS011;10657;51.276;6.390;2022-11-20T07:03:07;21.20;;;12.75;;
20997;SDS011;10657;51.276;6.390;2022-11-20T07:05:35;14.13;;;8.30;;
20997;SDS011;10657;51.276;6.390;2022-11-20T07:08:02;19.63;;;11.18;;
20997;SDS011;10657;51.276;6.390;2022-11-20T07:10:30;20.83;;;12.82;;
20997;SDS011;10657;51.276;6.390;2022-11-20T07:12:58;15.65;;;8.65;;
20997;SDS011;10657;51.276;6.390;2022-11-20T07:15:25;16.35;;;9.40;;
20997;SDS011;10657;51.276;6.390;2022-11-20T07:17:52;20.25;;;12.48;;
20997;SDS011;10657;51.276;6.390;2022-11-20T07:20:19;17.08;;;10.80;;
20997;SDS011;10657;51.276;6.390;2022-11-20T07:22:45;14.90;;;8.73;;
20997;SDS011;10657;51.276;6.390;2022-11-20T07:25:12;16.05;;;8.80;;
20997;SDS011;10657;51.276;6.390;2022-11-20T07:27:39;16.52;;;9.57;;
20997;SDS011;10657;51.276;6.390;2022-11-20T07:30:05;18.23;;;11.48;;
20997;SDS011;10657;51.276;6.390;2022-11-20T07:32:32;14.02;;;8.55;;
20997;SDS011;10657;51.276;6.390;2022-11-20T07:34:59;16.35;;;9.07;;
20997;SDS011;10657;51.276;6.390;2022-11-20T07:37:26;21.00;;;12.75;;
20997;SDS011;10657;51.276;6.390;2022-11-20T07:39:52;16.13;;;9.80;;
20997;SDS011;10657;51.276;6.390;2022-11-20T07:42:19;14.02;;;8.05;;
20997;SDS011;10657;51.276;6.390;2022-11-20T07:44:45;14.90;;;7.57;;
20997;SDS011;10657;51.276;6.390;2022-11-20T07:47:12;19.08;;;10.45;;
20997;SDS011;10657;51.276;6.390;2022-11-20T07:49:38;17.70;;;10.63;;
20997;SDS011;10657;51.276;6.390;2022-11-20T07:52:05;16.17;;;9.25;;
20997;SDS011;10657;51.276;6.390;2022-11-20T07:54:32;17.08;;;10.10;;
20997;SDS011;10657;51.276;6.390;2022-11-20T07:56:58;19.30;;;11.82;;
20997;SDS011;10657;51.276;6.390;2022-11-20T07:59:25;20.02;;;12.80;;
20997;SDS011;10657;51.276;6.390;2022-11-20T08:01:51;21.50;;;14.18;;
20997;SDS011;10657;51.276;6.390;2022-11-20T08:04:18;20.00;;;13.05;;
20997;SDS011;10657;51.276;6.390;2022-11-20T08:06:45;21.83;;;13.05;;
20997;SDS011;10657;51.276;6.390;2022-11-20T08:09:11;16.13;;;9.80;;
20997;SDS011;10657;51.276;6.390;2022-11-20T08:11:38;21.15;;;13.20;;
20997;SDS011;10657;51.276;6.390;2022-11-20T08:14:23;17.52;;;10.55;;
20997;SDS011;10657;51.276;6.390;2022-11-20T08:16:50;17.50;;;8.73;;
20997;SDS011;10657;51.276;6.390;2022-11-20T08:19:17;15.27;;;8.63;;
20997;SDS011;10657;51.276;6.390;2022-11-20T08:21:44;23.95;;;15.63;;
20997;SDS011;10657;51.276;6.390;2022-11-20T08:24:11;18.50;;;9.93;;
20997;SDS011;10657;51.276;6.390;2022-11-20T08:26:38;17.65;;;11.32;;
20997;SDS011;10657;51.276;6.390;2022-11-20T08:29:05;16.48;;;9.68;;
20997;SDS011;10657;51.276;6.390;2022-11-20T08:31:33;18.20;;;10.57;;
20997;SDS011;10657;51.276;6.390;2022-11-20T08:33:59;16.05;;;9.35;;
20997;SDS011;10657;51.276;6.390;2022-11-20T08:36:33;17.23;;;8.75;;
20997;SDS011;10657;51.276;6.390;2022-11-20T08:39:01;16.83;;;10.40;;
20997;SDS011;10657;51.276;6.390;2022-11-20T08:41:28;17.30;;;9.15;;
20997;SDS011;10657;51.276;6.390;2022-11-20T08:44:00;17.35;;;9.63;;
20997;SDS011;10657;51.276;6.390;2022-11-20T08:46:39;18.02;;;9.57;;
20997;SDS011;10657;51.276;6.390;2022-11-20T08:49:13;18.23;;;9.88;;
20997;SDS011;10657;51.276;6.390;2022-11-20T08:51:40;17.23;;;8.85;;
20997;SDS011;10657;51.276;6.390;2022-11-20T08:54:07;14.18;;;7.00;;
20997;SDS011;10657;51.276;6.390;2022-11-20T08:56:34;17.38;;;9.05;;
20997;SDS011;10657;51.276;6.390;2022-11-20T08:59:01;17.90;;;9.10;;
20997;SDS011;10657;51.276;6.390;2022-11-20T09:01:48;18.23;;;8.40;;
20997;SDS011;10657;51.276;6.390;2022-11-20T09:04:14;21.20;;;10.70;;
20997;SDS011;10657;51.276;6.390;2022-11-20T09:06:41;16.60;;;7.43;;
20997;SDS011;10657;51.276;6.390;2022-11-20T09:09:08;21.38;;;9.85;;
20997;SDS011;10657;51.276;6.390;2022-11-20T09:11:34;27.38;;;12.05;;
20997;SDS011;10657;51.276;6.390;2022-11-20T09:14:02;28.92;;;12.40;;
20997;SDS011;10657;51.276;6.390;2022-11-20T09:16:30;53.05;;;20.20;;
20997;SDS011;10657;51.276;6.390;2022-11-20T09:18:56;26.95;;;9.80;;
20997;SDS011;10657;51.276;6.390;2022-11-20T09:21:43;48.10;;;18.70;;
20997;SDS011;10657;51.276;6.390;2022-11-20T09:24:10;30.35;;;11.73;;
20997;SDS011;10657;51.276;6.390;2022-11-20T09:26:36;31.17;;;12.18;;
20997;SDS011;10657;51.276;6.390;2022-11-20T09:29:03;31.38;;;12.60;;
20997;SDS011;10657;51.276;6.390;2022-11-20T09:31:29;27.55;;;11.20;;
20997;SDS011;10657;51.276;6.390;2022-11-20T09:33:57;29.08;;;11.85;;
20997;SDS011;10657;51.276;6.390;2022-11-20T09:36:23;35.40;;;14.57;;
20997;SDS011;10657;51.276;6.390;2022-11-20T09:38:50;37.92;;;15.30;;
20997;SDS011;10657;51.276;6.390;2022-11-20T09:41:30;39.20;;;16.50;;
20997;SDS011;10657;51.276;6.390;2022-11-20T09:47:11;42.13;;;18.92;;
20997;SDS011;10657;51.276;6.390;2022-11-20T09:55:12;35.72;;;15.43;;
20997;SDS011;10657;51.276;6.390;2022-11-20T09:57:41;44.40;;;18.88;;
20997;SDS011;10657;51.276;6.390;2022-11-20T10:00:12;36.25;;;15.90;;
20997;SDS011;10657;51.276;6.390;2022-11-20T10:02:52;23.98;;;10.57;;
20997;SDS011;10657;51.276;6.390;2022-11-20T10:05:28;22.42;;;9.73;;
20997;SDS011;10657;51.276;6.390;2022-11-20T10:10:44;24.90;;;11.45;;
20997;SDS011;10657;51.276;6.390;2022-11-20T10:30:09;27.88;;;14.60;;
20997;SDS011;10657;51.276;6.390;2022-11-20T10:32:48;17.83;;;8.60;;
20997;SDS011;10657;51.276;6.390;2022-11-20T10:35:49;20.42;;;9.98;;
20997;SDS011;10657;51.276;6.390;2022-11-20T10:38:31;22.73;;;11.18;;
20997;SDS011;10657;51.276;6.390;2022-11-20T10:41:04;21.13;;;10.77;;
20997;SDS011;10657;51.276;6.390;2022-11-20T10:43:57;10.77;;;5.30;;
20997;SDS011;10657;51.276;6.390;2022-11-20T10:46:39;22.52;;;10.48;;
20997;SDS011;10657;51.276;6.390;2022-11-20T10:49:16;25.38;;;9.80;;
20997;SDS011;10657;51.276;6.390;2022-11-20T10:51:56;21.58;;;10.27;;
20997;SDS011;10657;51.276;6.390;2022-11-20T10:54:38;17.98;;;8.48;;
20997;SDS011;10657;51.276;6.390;2022-11-20T11:00:05;20.80;;;9.55;;
20997;SDS011;10657;51.276;6.390;2022-11-20T11:02:37;12.45;;;6.28;;
20997;SDS011;10657;51.276;6.390;2022-11-20T11:05:17;7.32;;;3.50;;
20997;SDS011;10657;51.276;6.390;2022-11-20T11:07:51;20.30;;;9.98;;
20997;SDS011;10657;51.276;6.390;2022-11-20T11:13:07;4.97;;;2.22;;
20997;SDS011;10657;51.276;6.390;2022-11-20T11:15:44;8.05;;;4.00;;
20997;SDS011;10657;51.276;6.390;2022-11-20T11:18:11;18.55;;;9.13;;
20997;SDS011;10657;51.276;6.390;2022-11-20T11:20:59;12.60;;;6.35;;
20997;SDS011;10657;51.276;6.390;2022-11-20T11:23:40;18.02;;;9.23;;
20997;SDS011;10657;51.276;6.390;2022-11-20T11:26:18;14.52;;;7.50;;
20997;SDS011;10657;51.276;6.390;2022-11-20T11:28:54;17.35;;;8.18;;
20997;SDS011;10657;51.276;6.390;2022-11-20T11:31:29;11.10;;;5.72;;
20997;SDS011;10657;51.276;6.390;2022-11-20T11:36:38;24.13;;;10.65;;
20997;SDS011;10657;51.276;6.390;2022-11-20T11:39:05;6.20;;;2.72;;
20997;SDS011;10657;51.276;6.390;2022-11-20T11:41:40;16.83;;;8.88;;
20997;SDS011;10657;51.276;6.390;2022-11-20T11:52:38;14.13;;;7.13;;
20997;SDS011;10657;51.276;6.390;2022-11-20T11:55:27;12.65;;;6.25;;
20997;SDS011;10657;51.276;6.390;2022-11-20T11:57:58;11.95;;;5.03;;
20997;SDS011;10657;51.276;6.390;2022-11-20T12:00:26;16.63;;;8.05;;
20997;SDS011;10657;51.276;6.390;2022-11-20T12:05:27;16.00;;;8.27;;
20997;SDS011;10657;51.276;6.390;2022-11-20T12:12:52;21.00;;;10.80;;
20997;SDS011;10657;51.276;6.390;2022-11-20T12:15:26;22.55;;;10.27;;
20997;SDS011;10657;51.276;6.390;2022-11-20T12:17:57;28.58;;;15.27;;
20997;SDS011;10657;51.276;6.390;2022-11-20T12:20:25;11.07;;;5.88;;
20997;SDS011;10657;51.276;6.390;2022-11-20T12:22:56;17.00;;;8.60;;
20997;SDS011;10657;51.276;6.390;2022-11-20T12:25:34;21.83;;;10.90;;
20997;SDS011;10657;51.276;6.390;2022-11-20T12:33:52;13.20;;;6.40;;
20997;SDS011;10657;51.276;6.390;2022-11-20T12:36:56;9.38;;;4.32;;
20997;SDS011;10657;51.276;6.390;2022-11-20T12:39:33;10.43;;;5.05;;
20997;SDS011;10657;51.276;6.390;2022-11-20T12:45:05;15.05;;;7.85;;
20997;SDS011;10657;51.276;6.390;2022-11-20T12:51:15;15.93;;;8.43;;
20997;SDS011;10657;51.276;6.390;2022-11-20T13:02:24;7.60;;;3.22;;
20997;SDS011;10657;51.276;6.390;2022-11-20T13:08:20;10.10;;;4.93;;
20997;SDS011;10657;51.276;6.390;2022-11-20T13:10:51;16.83;;;7.20;;
20997;SDS011;10657;51.276;6.390;2022-11-20T13:16:33;6.10;;;2.63;;
20997;SDS011;10657;51.276;6.390;2022-11-20T13:19:05;10.95;;;5.32;;
20997;SDS011;10657;51.276;6.390;2022-11-20T13:21:41;11.48;;;5.10;;
20997;SDS011;10657;51.276;6.390;2022-11-20T13:24:21;11.93;;;5.57;;
20997;SDS011;10657;51.276;6.390;2022-11-20T13:27:02;10.95;;;5.97;;
20997;SDS011;10657;51.276;6.390;2022-11-20T13:29:40;7.97;;;3.67;;
20997;SDS011;10657;51.276;6.390;2022-11-20T13:34:39;12.45;;;5.88;;
20997;SDS011;10657;51.276;6.390;2022-11-20T13:37:26;15.23;;;7.95;;
20997;SDS011;10657;51.276;6.390;2022-11-20T13:40:10;14.75;;;7.60;;
20997;SDS011;10657;51.276;6.390;2022-11-20T13:42:40;8.13;;;3.85;;
20997;SDS011;10657;51.276;6.390;2022-11-20T13:45:30;10.57;;;5.57;;
20997;SDS011;10657;51.276;6.390;2022-11-20T13:47:59;16.13;;;8.88;;
20997;SDS011;10657;51.276;6.390;2022-11-20T13:55:41;9.20;;;4.28;;
20997;SDS011;10657;51.276;6.390;2022-11-20T14:01:08;11.70;;;5.97;;
20997;SDS011;10657;51.276;6.390;2022-11-20T14:03:40;10.75;;;5.25;;
20997;SDS011;10657;51.276;6.390;2022-11-20T14:08:56;7.30;;;3.33;;
20997;SDS011;10657;51.276;6.390;2022-11-20T14:11:24;8.27;;;3.67;;
20997;SDS011;10657;51.276;6.390;2022-11-20T14:13:54;11.70;;;5.70;;
20997;SDS011;10657;51.276;6.390;2022-11-20T14:16:35;10.15;;;5.18;;
20997;SDS011;10657;51.276;6.390;2022-11-20T14:21:48;7.78;;;3.45;;
20997;SDS011;10657;51.276;6.390;2022-11-20T14:24:20;6.85;;;2.95;;
20997;SDS011;10657;51.276;6.390;2022-11-20T14:26:49;16.60;;;8.60;;
20997;SDS011;10657;51.276;6.390;2022-11-20T14:29:21;12.00;;;5.38;;
20997;SDS011;10657;51.276;6.390;2022-11-20T14:31:53;12.57;;;6.63;;
20997;SDS011;10657;51.276;6.390;2022-11-20T14:34:22;9.23;;;4.50;;
20997;SDS011;10657;51.276;6.390;2022-11-20T14:36:52;12.23;;;6.05;;
20997;SDS011;10657;51.276;6.390;2022-11-20T14:39:34;6.95;;;3.05;;
20997;SDS011;10657;51.276;6.390;2022-11-20T14:42:03;12.15;;;5.85;;
20997;SDS011;10657;51.276;6.390;2022-11-20T14:44:41;15.70;;;7.30;;
20997;SDS011;10657;51.276;6.390;2022-11-20T14:47:09;11.90;;;6.13;;
20997;SDS011;10657;51.276;6.390;2022-11-20T14:49:39;15.82;;;8.18;;
20997;SDS011;10657;51.276;6.390;2022-11-20T14:52:14;9.52;;;4.63;;
20997;SDS011;10657;51.276;6.390;2022-11-20T14:54:49;14.32;;;7.28;;
20997;SDS011;10657;51.276;6.390;2022-11-20T15:00:03;20.45;;;10.70;;
20997;SDS011;10657;51.276;6.390;2022-11-20T15:02:38;14.00;;;7.55;;
20997;SDS011;10657;51.276;6.390;2022-11-20T15:05:09;20.05;;;10.27;;
20997;SDS011;10657;51.276;6.390;2022-11-20T15:07:37;18.58;;;8.85;;
20997;SDS011;10657;51.276;6.390;2022-11-20T15:10:07;21.52;;;10.15;;
20997;SDS011;10657;51.276;6.390;2022-11-20T15:12:39;9.85;;;3.83;;
20997;SDS011;10657;51.276;6.390;2022-11-20T15:15:11;17.23;;;7.95;;
20997;SDS011;10657;51.276;6.390;2022-11-20T15:17:40;7.05;;;3.05;;
20997;SDS011;10657;51.276;6.390;2022-11-20T15:20:14;11.68;;;5.70;;
20997;SDS011;10657;51.276;6.390;2022-11-20T15:22:42;8.15;;;3.90;;
20997;SDS011;10657;51.276;6.390;2022-11-20T15:25:16;16.73;;;8.23;;
20997;SDS011;10657;51.276;6.390;2022-11-20T15:27:43;11.10;;;5.60;;
20997;SDS011;10657;51.276;6.390;2022-11-20T15:30:12;17.67;;;8.25;;
20997;SDS011;10657;51.276;6.390;2022-11-20T15:32:46;14.90;;;7.20;;
20997;SDS011;10657;51.276;6.390;2022-11-20T15:35:13;10.45;;;5.93;;
20997;SDS011;10657;51.276;6.390;2022-11-20T15:37:41;15.60;;;8.40;;
20997;SDS011;10657;51.276;6.390;2022-11-20T15:40:08;11.20;;;5.35;;
20997;SDS011;10657;51.276;6.390;2022-11-20T15:42:35;12.73;;;5.93;;
20997;SDS011;10657;51.276;6.390;2022-11-20T15:45:02;10.95;;;4.65;;
20997;SDS011;10657;51.276;6.390;2022-11-20T15:47:30;11.27;;;5.85;;
20997;SDS011;10657;51.276;6.390;2022-11-20T15:49:59;9.80;;;4.57;;
20997;SDS011;10657;51.276;6.390;2022-11-20T15:52:26;13.15;;;6.60;;
20997;SDS011;10657;51.276;6.390;2022-11-20T15:55:01;6.72;;;2.95;;
20997;SDS011;10657;51.276;6.390;2022-11-20T15:57:35;8.63;;;4.82;;
20997;SDS011;10657;51.276;6.390;2022-11-20T16:00:01;11.55;;;6.20;;
20997;SDS011;10657;51.276;6.390;2022-11-20T16:02:28;13.60;;;7.13;;
20997;SDS011;10657;51.276;6.390;2022-11-20T16:04:55;10.15;;;4.85;;
20997;SDS011;10657;51.276;6.390;2022-11-20T16:07:22;13.05;;;6.78;;
20997;SDS011;10657;51.276;6.390;2022-11-20T16:09:48;6.68;;;3.13;;
20997;SDS011;10657;51.276;6.390;2022-11-20T16:12:15;14.15;;;6.47;;
20997;SDS011;10657;51.276;6.390;2022-11-20T16:15:01;8.30;;;3.72;;
20997;SDS011;10657;51.276;6.390;2022-11-20T16:17:47;14.43;;;8.05;;
20997;SDS011;10657;51.276;6.390;2022-11-20T16:20:13;10.07;;;5.10;;
20997;SDS011;10657;51.276;6.390;2022-11-20T16:22:40;13.18;;;6.68;;
20997;SDS011;10657;51.276;6.390;2022-11-20T16:25:06;9.88;;;5.15;;
20997;SDS011;10657;51.276;6.390;2022-11-20T16:27:33;13.23;;;7.28;;
20997;SDS011;10657;51.276;6.390;2022-11-20T16:30:00;6.30;;;2.58;;
20997;SDS011;10657;51.276;6.390;2022-11-20T16:32:26;9.98;;;4.97;;